Saint Louis, Missouri
Traffic Map
Current Weather Conditions
Saint Louis, Missouri
Clear
Clear
26°
Feels Like: 27°
Wind Chill: 26° Ceiling: Unl
Heat Index: 27° Visibility: 10mi
Dew Point: 19° Wind: 5mph
Humidity: 68% Direction: 340° (NNW)
Pressure: 29.94in Gusts: 0mph
Raw Report DataKCPS 022353Z 34004KT 10SM CLR 26/19 A2994 RMK AO2 SLP133 T02560194 10289 20256 55004
Traffic Incident Summary
Active as of:
Severity:
Category:
InformationThere was an issue retrieving the traffic information for this location. Please try a different location or try again shortly.
Advertisements
Track Severe Weather on mobile